首页
METAR-TAF:

METAR-TAF

机场 :

Duncan Municipal Airport (Halliburton Field)

Duncan, 奧克拉荷馬州, 美国

纬度: 34-28-15N, 经度: 097-57-36W, 海拔: 339米

当前天气观测

该预报发布于38分钟前的18:35 UTC
风速3节,风向东转东南
温度 29°C
湿度 66%
气压 1024 hPa
能見度: 16.1公里
散云层高于2900英尺
散云层高于4000英尺
散云层高于7000英尺

METAR: KDUC 201835Z AUTO 11003KT 10SM SCT029 SCT040 SCT070 29/22 A3024 RMK AO2 T02950216

时间: 14:13 (19:13 UTC)


TAF: 丢失

超过4000个机场的气象观测和天气预报(METAR&TAF报告)。

可查询的气象台以黄色和红色小点在地图上表示。

将鼠标移到小点上方,可查看气象台名称。

然后点击查看天气观测和预报。

如需切换地图:点击带黑十字的绿色按钮放大地图;点击带横线的绿色按钮缩小地图;或者点击绿色箭头查看邻近地区的地图。


METAR-TAF: